sensor_id;sensor_type;location;lat;lon;timestamp;pressure;altitude;pressure_sealevel;temperature;humidity
17311;BME280;8773;43.300;0.394;2023-05-28T00:02:37;99486.38;;;19.90;65.38
17311;BME280;8773;43.300;0.394;2023-05-28T00:05:06;99483.25;;;19.93;65.12
17311;BME280;8773;43.300;0.394;2023-05-28T00:07:33;99483.47;;;19.91;65.21
17311;BME280;8773;43.300;0.394;2023-05-28T00:10:03;99474.22;;;19.99;64.59
17311;BME280;8773;43.300;0.394;2023-05-28T00:12:30;99468.97;;;20.04;64.01
17311;BME280;8773;43.300;0.394;2023-05-28T00:14:58;99474.06;;;19.94;64.61
17311;BME280;8773;43.300;0.394;2023-05-28T00:17:25;99465.81;;;19.82;65.14
17311;BME280;8773;43.300;0.394;2023-05-28T00:19:53;99472.38;;;19.75;65.23
17311;BME280;8773;43.300;0.394;2023-05-28T00:22:21;99467.31;;;19.78;65.18
17311;BME280;8773;43.300;0.394;2023-05-28T00:24:48;99474.31;;;19.67;65.51
17311;BME280;8773;43.300;0.394;2023-05-28T00:27:17;99463.66;;;19.73;65.46
17311;BME280;8773;43.300;0.394;2023-05-28T00:29:44;99476.84;;;19.62;65.79
17311;BME280;8773;43.300;0.394;2023-05-28T00:32:11;99468.13;;;19.60;65.91
17311;BME280;8773;43.300;0.394;2023-05-28T00:34:39;99470.22;;;19.58;65.83
17311;BME280;8773;43.300;0.394;2023-05-28T00:37:06;99463.31;;;19.62;65.73
17311;BME280;8773;43.300;0.394;2023-05-28T00:39:34;99460.88;;;19.54;66.12
17311;BME280;8773;43.300;0.394;2023-05-28T00:42:02;99464.84;;;19.52;66.25
17311;BME280;8773;43.300;0.394;2023-05-28T00:44:31;99464.28;;;19.43;66.54
17311;BME280;8773;43.300;0.394;2023-05-28T00:46:59;99462.41;;;19.44;66.60
17311;BME280;8773;43.300;0.394;2023-05-28T00:49:27;99454.06;;;19.45;66.09
17311;BME280;8773;43.300;0.394;2023-05-28T00:51:56;99459.66;;;19.50;65.99
17311;BME280;8773;43.300;0.394;2023-05-28T00:54:24;99453.44;;;19.43;66.24
17311;BME280;8773;43.300;0.394;2023-05-28T00:59:19;99459.66;;;19.19;67.39
17311;BME280;8773;43.300;0.394;2023-05-28T01:01:48;99451.09;;;19.22;67.12
17311;BME280;8773;43.300;0.394;2023-05-28T01:04:16;99454.06;;;19.14;67.76
17311;BME280;8773;43.300;0.394;2023-05-28T01:06:44;99451.34;;;19.14;67.66
17311;BME280;8773;43.300;0.394;2023-05-28T01:09:12;99451.88;;;18.97;68.48
17311;BME280;8773;43.300;0.394;2023-05-28T01:11:41;99452.72;;;18.91;68.52
17311;BME280;8773;43.300;0.394;2023-05-28T01:14:10;99449.81;;;18.93;68.39
17311;BME280;8773;43.300;0.394;2023-05-28T01:16:38;99453.31;;;18.62;69.37
17311;BME280;8773;43.300;0.394;2023-05-28T01:19:08;99456.03;;;18.55;69.75
17311;BME280;8773;43.300;0.394;2023-05-28T01:21:40;99455.41;;;18.53;69.21
17311;BME280;8773;43.300;0.394;2023-05-28T01:24:09;99459.63;;;18.36;69.97
17311;BME280;8773;43.300;0.394;2023-05-28T01:26:38;99457.09;;;18.48;69.35
17311;BME280;8773;43.300;0.394;2023-05-28T01:29:13;99455.00;;;18.56;69.29
17311;BME280;8773;43.300;0.394;2023-05-28T01:31:41;99449.19;;;18.53;69.20
17311;BME280;8773;43.300;0.394;2023-05-28T01:34:09;99454.22;;;18.43;69.42
17311;BME280;8773;43.300;0.394;2023-05-28T01:36:40;99444.59;;;18.53;69.14
17311;BME280;8773;43.300;0.394;2023-05-28T01:39:14;99439.16;;;18.66;68.79
17311;BME280;8773;43.300;0.394;2023-05-28T01:41:42;99442.88;;;18.72;68.60
17311;BME280;8773;43.300;0.394;2023-05-28T01:44:11;99443.22;;;18.82;68.26
17311;BME280;8773;43.300;0.394;2023-05-28T01:46:39;99444.47;;;18.86;67.91
17311;BME280;8773;43.300;0.394;2023-05-28T01:49:09;99441.06;;;18.91;67.78
17311;BME280;8773;43.300;0.394;2023-05-28T01:51:37;99436.06;;;18.94;67.70
17311;BME280;8773;43.300;0.394;2023-05-28T01:54:05;99444.38;;;18.99;67.64
17311;BME280;8773;43.300;0.394;2023-05-28T01:56:33;99444.56;;;18.98;67.47
17311;BME280;8773;43.300;0.394;2023-05-28T01:59:01;99447.06;;;18.99;67.16
17311;BME280;8773;43.300;0.394;2023-05-28T02:01:30;99440.25;;;18.90;67.66
17311;BME280;8773;43.300;0.394;2023-05-28T02:03:58;99441.53;;;18.88;67.53
17311;BME280;8773;43.300;0.394;2023-05-28T02:06:27;99440.03;;;18.92;67.40
17311;BME280;8773;43.300;0.394;2023-05-28T02:08:55;99443.34;;;18.94;67.02
17311;BME280;8773;43.300;0.394;2023-05-28T02:11:22;99451.06;;;18.90;67.10
17311;BME280;8773;43.300;0.394;2023-05-28T02:13:51;99439.56;;;19.01;66.84
17311;BME280;8773;43.300;0.394;2023-05-28T02:16:18;99443.72;;;19.04;66.12
17311;BME280;8773;43.300;0.394;2023-05-28T02:18:46;99440.56;;;19.07;66.00
17311;BME280;8773;43.300;0.394;2023-05-28T02:21:14;99454.34;;;18.99;66.69
17311;BME280;8773;43.300;0.394;2023-05-28T02:23:43;99444.75;;;19.03;66.32
17311;BME280;8773;43.300;0.394;2023-05-28T02:26:11;99454.72;;;19.09;66.09
17311;BME280;8773;43.300;0.394;2023-05-28T02:28:40;99447.44;;;19.10;66.32
17311;BME280;8773;43.300;0.394;2023-05-28T02:31:09;99447.22;;;19.11;65.94
17311;BME280;8773;43.300;0.394;2023-05-28T02:33:37;99445.16;;;19.07;65.79
17311;BME280;8773;43.300;0.394;2023-05-28T02:36:05;99447.25;;;19.05;65.92
17311;BME280;8773;43.300;0.394;2023-05-28T02:38:32;99444.53;;;19.05;65.77
17311;BME280;8773;43.300;0.394;2023-05-28T02:41:00;99448.69;;;19.07;65.53
17311;BME280;8773;43.300;0.394;2023-05-28T02:43:27;99447.03;;;19.06;65.89
17311;BME280;8773;43.300;0.394;2023-05-28T02:45:55;99444.38;;;18.99;65.81
17311;BME280;8773;43.300;0.394;2023-05-28T02:48:24;99441.91;;;18.91;65.90
17311;BME280;8773;43.300;0.394;2023-05-28T02:50:52;99441.91;;;18.91;65.89
17311;BME280;8773;43.300;0.394;2023-05-28T02:53:20;99437.38;;;18.85;65.90
17311;BME280;8773;43.300;0.394;2023-05-28T02:55:48;99431.00;;;18.73;66.30
17311;BME280;8773;43.300;0.394;2023-05-28T02:58:16;99436.59;;;18.78;66.20
17311;BME280;8773;43.300;0.394;2023-05-28T03:00:43;99440.59;;;18.69;66.28
17311;BME280;8773;43.300;0.394;2023-05-28T03:03:11;99427.09;;;18.62;66.44
17311;BME280;8773;43.300;0.394;2023-05-28T03:05:40;99427.94;;;18.63;66.33
17311;BME280;8773;43.300;0.394;2023-05-28T03:08:08;99429.78;;;18.69;66.24
17311;BME280;8773;43.300;0.394;2023-05-28T03:10:36;99429.56;;;18.71;66.09
17311;BME280;8773;43.300;0.394;2023-05-28T03:13:03;99433.16;;;18.58;66.66
17311;BME280;8773;43.300;0.394;2023-05-28T03:15:31;99433.78;;;18.53;66.68
17311;BME280;8773;43.300;0.394;2023-05-28T03:17:58;99431.72;;;18.49;66.80
17311;BME280;8773;43.300;0.394;2023-05-28T03:20:26;99424.03;;;18.46;66.92
17311;BME280;8773;43.300;0.394;2023-05-28T03:22:56;99430.06;;;18.48;66.60
17311;BME280;8773;43.300;0.394;2023-05-28T03:25:24;99429.47;;;18.39;67.04
17311;BME280;8773;43.300;0.394;2023-05-28T03:27:51;99425.09;;;18.38;66.91
17311;BME280;8773;43.300;0.394;2023-05-28T03:30:19;99431.16;;;18.33;66.97
17311;BME280;8773;43.300;0.394;2023-05-28T03:32:47;99427.88;;;18.18;67.31
17311;BME280;8773;43.300;0.394;2023-05-28T03:35:15;99438.06;;;18.16;67.70
17311;BME280;8773;43.300;0.394;2023-05-28T03:37:43;99437.63;;;18.26;67.34
17311;BME280;8773;43.300;0.394;2023-05-28T03:40:12;99436.97;;;18.30;67.28
17311;BME280;8773;43.300;0.394;2023-05-28T03:42:40;99433.66;;;18.35;66.94
17311;BME280;8773;43.300;0.394;2023-05-28T03:45:08;99431.38;;;18.32;67.00
17311;BME280;8773;43.300;0.394;2023-05-28T03:47:35;99421.19;;;18.27;67.21
17311;BME280;8773;43.300;0.394;2023-05-28T03:50:03;99422.63;;;18.36;67.05
17311;BME280;8773;43.300;0.394;2023-05-28T03:52:31;99423.03;;;18.40;66.75
17311;BME280;8773;43.300;0.394;2023-05-28T03:54:58;99425.09;;;18.45;66.41
17311;BME280;8773;43.300;0.394;2023-05-28T03:57:27;99420.91;;;18.49;66.53
17311;BME280;8773;43.300;0.394;2023-05-28T03:59:54;99424.84;;;18.46;66.56
17311;BME280;8773;43.300;0.394;2023-05-28T04:02:22;99427.97;;;18.50;66.46
17311;BME280;8773;43.300;0.394;2023-05-28T04:04:49;99431.50;;;18.50;66.31
17311;BME280;8773;43.300;0.394;2023-05-28T04:07:17;99434.44;;;18.49;66.32
17311;BME280;8773;43.300;0.394;2023-05-28T04:09:44;99440.69;;;18.43;66.51
17311;BME280;8773;43.300;0.394;2023-05-28T04:12:11;99444.19;;;18.50;66.28
17311;BME280;8773;43.300;0.394;2023-05-28T04:14:40;99452.06;;;18.58;66.06
17311;BME280;8773;43.300;0.394;2023-05-28T04:17:08;99442.50;;;18.62;65.81
17311;BME280;8773;43.300;0.394;2023-05-28T04:19:36;99447.47;;;18.65;65.71
17311;BME280;8773;43.300;0.394;2023-05-28T04:22:04;99449.72;;;18.75;65.49
17311;BME280;8773;43.300;0.394;2023-05-28T04:24:31;99447.63;;;18.77;65.31
17311;BME280;8773;43.300;0.394;2023-05-28T04:26:58;99443.69;;;18.73;65.57
17311;BME280;8773;43.300;0.394;2023-05-28T04:29:26;99445.13;;;18.75;65.42
17311;BME280;8773;43.300;0.394;2023-05-28T04:31:55;99436.81;;;18.77;65.27
17311;BME280;8773;43.300;0.394;2023-05-28T04:34:22;99438.50;;;18.71;65.39
17311;BME280;8773;43.300;0.394;2023-05-28T04:36:50;99449.31;;;18.71;65.27
17311;BME280;8773;43.300;0.394;2023-05-28T04:39:17;99452.53;;;18.42;66.25
17311;BME280;8773;43.300;0.394;2023-05-28T04:41:45;99454.00;;;18.38;66.35
17311;BME280;8773;43.300;0.394;2023-05-28T04:44:12;99449.84;;;18.42;66.32
17311;BME280;8773;43.300;0.394;2023-05-28T04:46:40;99450.41;;;18.57;66.10
17311;BME280;8773;43.300;0.394;2023-05-28T04:49:09;99450.19;;;18.65;65.97
17311;BME280;8773;43.300;0.394;2023-05-28T04:51:36;99441.59;;;18.75;65.40
17311;BME280;8773;43.300;0.394;2023-05-28T04:54:04;99442.22;;;18.77;65.11
17311;BME280;8773;43.300;0.394;2023-05-28T04:56:31;99450.75;;;18.74;65.43
17311;BME280;8773;43.300;0.394;2023-05-28T04:58:59;99454.88;;;18.83;65.27
17311;BME280;8773;43.300;0.394;2023-05-28T05:01:26;99459.19;;;18.90;64.64
17311;BME280;8773;43.300;0.394;2023-05-28T05:03:53;99464.84;;;18.89;64.77
17311;BME280;8773;43.300;0.394;2023-05-28T05:06:22;99462.13;;;18.89;64.56
17311;BME280;8773;43.300;0.394;2023-05-28T05:08:50;99453.41;;;18.87;64.57
17311;BME280;8773;43.300;0.394;2023-05-28T05:11:17;99454.44;;;18.86;64.62
17311;BME280;8773;43.300;0.394;2023-05-28T05:13:44;99461.59;;;18.74;64.66
17311;BME280;8773;43.300;0.394;2023-05-28T05:16:12;99462.97;;;18.89;64.50
17311;BME280;8773;43.300;0.394;2023-05-28T05:18:39;99460.78;;;19.05;64.01
17311;BME280;8773;43.300;0.394;2023-05-28T05:21:07;99465.25;;;19.24;63.90
17311;BME280;8773;43.300;0.394;2023-05-28T05:23:35;99466.66;;;19.33;63.61
17311;BME280;8773;43.300;0.394;2023-05-28T05:26:03;99467.66;;;19.39;63.12
17311;BME280;8773;43.300;0.394;2023-05-28T05:28:30;99472.94;;;19.27;63.48
17311;BME280;8773;43.300;0.394;2023-05-28T05:30:58;99478.78;;;19.24;63.55
17311;BME280;8773;43.300;0.394;2023-05-28T05:33:25;99477.63;;;19.07;63.75
17311;BME280;8773;43.300;0.394;2023-05-28T05:35:53;99473.50;;;18.97;64.09
17311;BME280;8773;43.300;0.394;2023-05-28T05:38:21;99472.59;;;19.10;63.95
17311;BME280;8773;43.300;0.394;2023-05-28T05:40:50;99474.22;;;19.18;63.38
17311;BME280;8773;43.300;0.394;2023-05-28T05:43:17;99472.06;;;19.33;63.19
17311;BME280;8773;43.300;0.394;2023-05-28T05:45:44;99480.97;;;19.40;62.07
17311;BME280;8773;43.300;0.394;2023-05-28T05:48:12;99481.41;;;19.37;62.27
17311;BME280;8773;43.300;0.394;2023-05-28T05:50:49;99476.47;;;19.59;61.92
17311;BME280;8773;43.300;0.394;2023-05-28T05:53:17;99475.41;;;19.60;61.22
17311;BME280;8773;43.300;0.394;2023-05-28T05:55:45;99479.59;;;19.81;61.30
17311;BME280;8773;43.300;0.394;2023-05-28T05:58:13;99481.00;;;20.08;60.52
17311;BME280;8773;43.300;0.394;2023-05-28T06:00:41;99481.72;;;20.22;60.18
17311;BME280;8773;43.300;0.394;2023-05-28T06:03:08;99471.41;;;20.49;58.75
17311;BME280;8773;43.300;0.394;2023-05-28T06:05:36;99465.97;;;20.67;58.39
17311;BME280;8773;43.300;0.394;2023-05-28T06:08:03;99469.72;;;20.84;57.76
17311;BME280;8773;43.300;0.394;2023-05-28T06:10:31;99457.78;;;21.04;57.35
17311;BME280;8773;43.300;0.394;2023-05-28T06:12:58;99457.41;;;21.53;56.01
17311;BME280;8773;43.300;0.394;2023-05-28T06:15:27;99459.25;;;21.83;54.87
17311;BME280;8773;43.300;0.394;2023-05-28T06:17:55;99462.31;;;22.21;53.93
17311;BME280;8773;43.300;0.394;2023-05-28T06:20:22;99459.34;;;23.15;52.61
17311;BME280;8773;43.300;0.394;2023-05-28T06:22:50;99455.75;;;23.93;50.60
17311;BME280;8773;43.300;0.394;2023-05-28T06:25:17;99451.13;;;24.49;48.89
17311;BME280;8773;43.300;0.394;2023-05-28T06:27:45;99445.44;;;25.04;47.10
17311;BME280;8773;43.300;0.394;2023-05-28T06:30:12;99444.75;;;25.73;45.72
17311;BME280;8773;43.300;0.394;2023-05-28T06:32:42;99444.63;;;26.42;44.35
17311;BME280;8773;43.300;0.394;2023-05-28T06:35:09;99441.56;;;27.01;41.96
17311;BME280;8773;43.300;0.394;2023-05-28T06:37:36;99449.53;;;27.22;41.65
17311;BME280;8773;43.300;0.394;2023-05-28T06:40:07;99441.03;;;27.04;40.92
17311;BME280;8773;43.300;0.394;2023-05-28T06:42:35;99446.81;;;27.38;41.40
17311;BME280;8773;43.300;0.394;2023-05-28T06:45:02;99455.31;;;28.02;40.12
17311;BME280;8773;43.300;0.394;2023-05-28T06:47:30;99455.84;;;28.30;39.90
17311;BME280;8773;43.300;0.394;2023-05-28T06:49:59;99460.75;;;28.38;39.73
17311;BME280;8773;43.300;0.394;2023-05-28T06:52:26;99460.53;;;28.14;39.87
17311;BME280;8773;43.300;0.394;2023-05-28T06:54:54;99457.00;;;27.78;40.06
17311;BME280;8773;43.300;0.394;2023-05-28T06:57:21;99457.78;;;27.12;41.52
17311;BME280;8773;43.300;0.394;2023-05-28T06:59:49;99453.94;;;27.08;41.41
17311;BME280;8773;43.300;0.394;2023-05-28T07:02:16;99448.13;;;26.95;42.03
17311;BME280;8773;43.300;0.394;2023-05-28T07:04:44;99453.09;;;26.40;42.86
17311;BME280;8773;43.300;0.394;2023-05-28T07:07:13;99469.88;;;26.07;43.97
17311;BME280;8773;43.300;0.394;2023-05-28T07:09:40;99472.06;;;25.41;45.13
17311;BME280;8773;43.300;0.394;2023-05-28T07:12:08;99491.16;;;24.65;47.00
17311;BME280;8773;43.300;0.394;2023-05-28T07:14:36;99508.19;;;24.17;48.68
17311;BME280;8773;43.300;0.394;2023-05-28T07:17:04;99511.84;;;23.55;50.23
17311;BME280;8773;43.300;0.394;2023-05-28T07:19:31;99506.31;;;22.82;51.94
17311;BME280;8773;43.300;0.394;2023-05-28T07:21:58;99521.53;;;22.66;52.61
17311;BME280;8773;43.300;0.394;2023-05-28T07:24:27;99519.19;;;22.58;52.92
17311;BME280;8773;43.300;0.394;2023-05-28T07:26:55;99519.78;;;22.37;53.54
17311;BME280;8773;43.300;0.394;2023-05-28T07:29:22;99517.19;;;22.42;53.61
17311;BME280;8773;43.300;0.394;2023-05-28T07:31:49;99528.41;;;22.34;53.93
17311;BME280;8773;43.300;0.394;2023-05-28T07:34:17;99525.94;;;22.44;53.71
17311;BME280;8773;43.300;0.394;2023-05-28T07:36:44;99526.75;;;22.33;54.28
17311;BME280;8773;43.300;0.394;2023-05-28T07:39:12;99522.84;;;22.17;55.00
17311;BME280;8773;43.300;0.394;2023-05-28T07:41:40;99524.50;;;22.53;54.32
17311;BME280;8773;43.300;0.394;2023-05-28T07:44:08;99504.59;;;22.76;53.51
17311;BME280;8773;43.300;0.394;2023-05-28T07:46:36;99516.81;;;23.02;52.80
17311;BME280;8773;43.300;0.394;2023-05-28T07:49:04;99521.50;;;22.78;53.35
17311;BME280;8773;43.300;0.394;2023-05-28T07:51:31;99521.31;;;23.08;53.14
17311;BME280;8773;43.300;0.394;2023-05-28T07:53:58;99514.06;;;23.02;53.00
17311;BME280;8773;43.300;0.394;2023-05-28T07:56:26;99514.00;;;22.85;53.02
17311;BME280;8773;43.300;0.394;2023-05-28T07:58:55;99519.97;;;23.22;53.19
17311;BME280;8773;43.300;0.394;2023-05-28T08:01:22;99511.75;;;23.50;52.34
17311;BME280;8773;43.300;0.394;2023-05-28T08:03:50;99509.84;;;23.68;51.54
17311;BME280;8773;43.300;0.394;2023-05-28T08:06:18;99507.91;;;23.35;51.71
17311;BME280;8773;43.300;0.394;2023-05-28T08:08:45;99507.63;;;23.48;52.26
17311;BME280;8773;43.300;0.394;2023-05-28T08:11:13;99510.38;;;23.81;51.20
17311;BME280;8773;43.300;0.394;2023-05-28T08:13:40;99507.75;;;24.03;50.49
17311;BME280;8773;43.300;0.394;2023-05-28T08:16:11;99500.75;;;24.12;49.03
17311;BME280;8773;43.300;0.394;2023-05-28T08:18:39;99503.66;;;24.22;49.03
17311;BME280;8773;43.300;0.394;2023-05-28T08:21:06;99492.88;;;24.33;48.33
17311;BME280;8773;43.300;0.394;2023-05-28T08:23:34;99488.19;;;24.45;47.83
17311;BME280;8773;43.300;0.394;2023-05-28T08:26:01;99494.13;;;24.64;47.54
17311;BME280;8773;43.300;0.394;2023-05-28T08:28:29;99484.81;;;24.81;47.12
17311;BME280;8773;43.300;0.394;2023-05-28T08:30:57;99478.78;;;24.79;46.97
17311;BME280;8773;43.300;0.394;2023-05-28T08:33:26;99478.59;;;24.64;45.65
17311;BME280;8773;43.300;0.394;2023-05-28T08:35:53;99466.00;;;24.85;45.76
17311;BME280;8773;43.300;0.394;2023-05-28T08:38:21;99467.25;;;24.99;44.32
17311;BME280;8773;43.300;0.394;2023-05-28T08:40:51;99464.09;;;24.85;44.66
17311;BME280;8773;43.300;0.394;2023-05-28T08:43:20;99461.66;;;25.11;44.74
17311;BME280;8773;43.300;0.394;2023-05-28T08:45:50;99462.59;;;25.21;43.76
17311;BME280;8773;43.300;0.394;2023-05-28T08:48:19;99465.53;;;25.15;43.19
17311;BME280;8773;43.300;0.394;2023-05-28T08:50:49;99457.03;;;25.38;43.67
17311;BME280;8773;43.300;0.394;2023-05-28T08:53:20;99449.47;;;25.82;42.94
17311;BME280;8773;43.300;0.394;2023-05-28T08:55:48;99447.59;;;25.56;40.51
17311;BME280;8773;43.300;0.394;2023-05-28T08:58:16;99451.09;;;24.98;41.70
17311;BME280;8773;43.300;0.394;2023-05-28T09:00:44;99438.50;;;24.91;42.19
17311;BME280;8773;43.300;0.394;2023-05-28T09:03:11;99439.81;;;25.11;41.70
17311;BME280;8773;43.300;0.394;2023-05-28T09:05:39;99436.09;;;25.54;41.22
17311;BME280;8773;43.300;0.394;2023-05-28T09:08:09;99434.06;;;25.71;38.69
17311;BME280;8773;43.300;0.394;2023-05-28T09:10:38;99421.03;;;25.88;38.03
17311;BME280;8773;43.300;0.394;2023-05-28T09:13:06;99414.56;;;26.00;38.08
17311;BME280;8773;43.300;0.394;2023-05-28T09:15:34;99412.72;;;26.10;37.54
17311;BME280;8773;43.300;0.394;2023-05-28T09:18:01;99414.69;;;26.20;37.91
17311;BME280;8773;43.300;0.394;2023-05-28T09:20:31;99413.84;;;25.72;38.59
17311;BME280;8773;43.300;0.394;2023-05-28T09:23:00;99406.69;;;26.08;38.26
17311;BME280;8773;43.300;0.394;2023-05-28T09:25:29;99394.81;;;26.45;37.26
17311;BME280;8773;43.300;0.394;2023-05-28T09:27:58;99405.03;;;26.75;36.85
17311;BME280;8773;43.300;0.394;2023-05-28T09:30:26;99403.13;;;26.80;36.73
17311;BME280;8773;43.300;0.394;2023-05-28T09:33:00;99399.56;;;26.80;36.83
17311;BME280;8773;43.300;0.394;2023-05-28T09:35:29;99400.66;;;26.69;36.50
17311;BME280;8773;43.300;0.394;2023-05-28T09:38:00;99401.00;;;26.98;35.95
17311;BME280;8773;43.300;0.394;2023-05-28T09:40:29;99387.88;;;27.10;37.41
17311;BME280;8773;43.300;0.394;2023-05-28T09:42:57;99384.88;;;27.06;35.47
17311;BME280;8773;43.300;0.394;2023-05-28T09:45:26;99391.72;;;27.24;35.70
17311;BME280;8773;43.300;0.394;2023-05-28T09:47:53;99378.00;;;27.04;34.34
17311;BME280;8773;43.300;0.394;2023-05-28T09:50:21;99380.13;;;26.86;33.83
17311;BME280;8773;43.300;0.394;2023-05-28T09:52:49;99372.72;;;26.04;35.60
17311;BME280;8773;43.300;0.394;2023-05-28T09:55:23;99365.84;;;26.54;35.83
17311;BME280;8773;43.300;0.394;2023-05-28T09:57:58;99380.63;;;26.53;34.22
17311;BME280;8773;43.300;0.394;2023-05-28T10:00:30;99379.25;;;26.55;32.79
17311;BME280;8773;43.300;0.394;2023-05-28T10:03:06;99370.81;;;26.67;34.72
17311;BME280;8773;43.300;0.394;2023-05-28T10:05:34;99364.81;;;26.90;35.07
17311;BME280;8773;43.300;0.394;2023-05-28T10:08:02;99365.94;;;27.00;35.55
17311;BME280;8773;43.300;0.394;2023-05-28T10:10:32;99365.66;;;27.32;33.69
17311;BME280;8773;43.300;0.394;2023-05-28T10:13:01;99363.72;;;27.68;33.66
17311;BME280;8773;43.300;0.394;2023-05-28T10:15:29;99362.31;;;27.96;34.01
17311;BME280;8773;43.300;0.394;2023-05-28T10:17:57;99359.88;;;27.69;32.29
17311;BME280;8773;43.300;0.394;2023-05-28T10:20:25;99358.22;;;27.78;33.49
17311;BME280;8773;43.300;0.394;2023-05-28T10:22:53;99357.72;;;27.35;32.83
17311;BME280;8773;43.300;0.394;2023-05-28T10:25:21;99361.56;;;27.29;33.62
17311;BME280;8773;43.300;0.394;2023-05-28T10:27:49;99350.31;;;27.56;33.46
17311;BME280;8773;43.300;0.394;2023-05-28T10:30:35;99342.84;;;27.82;33.70
17311;BME280;8773;43.300;0.394;2023-05-28T10:33:07;99337.88;;;27.99;33.22
17311;BME280;8773;43.300;0.394;2023-05-28T10:35:50;99341.13;;;28.11;33.57
17311;BME280;8773;43.300;0.394;2023-05-28T10:38:18;99332.38;;;27.99;32.48
17311;BME280;8773;43.300;0.394;2023-05-28T10:40:46;99341.16;;;27.96;33.59
17311;BME280;8773;43.300;0.394;2023-05-28T10:43:41;99335.72;;;27.81;33.00
17311;BME280;8773;43.300;0.394;2023-05-28T10:46:10;99337.09;;;27.73;32.42
17311;BME280;8773;43.300;0.394;2023-05-28T10:48:39;99329.97;;;27.77;34.01
17311;BME280;8773;43.300;0.394;2023-05-28T10:51:06;99328.06;;;27.73;32.90
17311;BME280;8773;43.300;0.394;2023-05-28T10:53:34;99322.00;;;27.76;32.39
17311;BME280;8773;43.300;0.394;2023-05-28T10:56:01;99322.53;;;27.93;32.94
17311;BME280;8773;43.300;0.394;2023-05-28T10:58:33;99317.63;;;27.80;33.37
17311;BME280;8773;43.300;0.394;2023-05-28T11:01:03;99320.66;;;27.73;33.35
17311;BME280;8773;43.300;0.394;2023-05-28T11:03:40;99324.75;;;27.81;33.91
17311;BME280;8773;43.300;0.394;2023-05-28T11:06:08;99323.56;;;28.02;34.72
17311;BME280;8773;43.300;0.394;2023-05-28T11:08:40;99318.06;;;28.12;34.86
17311;BME280;8773;43.300;0.394;2023-05-28T11:11:10;99310.63;;;28.18;34.66
17311;BME280;8773;43.300;0.394;2023-05-28T11:13:42;99304.88;;;28.14;34.79
17311;BME280;8773;43.300;0.394;2023-05-28T11:16:10;99313.09;;;28.19;33.84
17311;BME280;8773;43.300;0.394;2023-05-28T11:18:39;99307.06;;;28.07;35.17
17311;BME280;8773;43.300;0.394;2023-05-28T11:21:08;99300.44;;;28.24;34.23
17311;BME280;8773;43.300;0.394;2023-05-28T11:23:35;99294.44;;;28.06;33.04
17311;BME280;8773;43.300;0.394;2023-05-28T11:26:03;99299.47;;;27.89;35.44
17311;BME280;8773;43.300;0.394;2023-05-28T11:28:47;99301.16;;;27.80;33.98
17311;BME280;8773;43.300;0.394;2023-05-28T11:31:15;99298.84;;;28.07;34.70
17311;BME280;8773;43.300;0.394;2023-05-28T11:33:43;99289.50;;;28.13;35.54
17311;BME280;8773;43.300;0.394;2023-05-28T11:36:13;99289.47;;;28.24;35.00
17311;BME280;8773;43.300;0.394;2023-05-28T11:38:41;99292.22;;;28.18;35.39
17311;BME280;8773;43.300;0.394;2023-05-28T11:41:08;99290.41;;;27.94;34.23
17311;BME280;8773;43.300;0.394;2023-05-28T11:43:35;99279.25;;;27.70;36.13
17311;BME280;8773;43.300;0.394;2023-05-28T11:46:05;99270.28;;;28.13;36.33
17311;BME280;8773;43.300;0.394;2023-05-28T11:48:37;99273.63;;;28.00;36.25
17311;BME280;8773;43.300;0.394;2023-05-28T11:51:06;99270.41;;;27.88;35.84
17311;BME280;8773;43.300;0.394;2023-05-28T11:53:40;99262.44;;;27.86;36.45
17311;BME280;8773;43.300;0.394;2023-05-28T11:56:09;99267.16;;;27.76;34.70
17311;BME280;8773;43.300;0.394;2023-05-28T11:58:37;99258.59;;;27.87;33.90
17311;BME280;8773;43.300;0.394;2023-05-28T12:01:05;99248.91;;;28.10;33.81
17311;BME280;8773;43.300;0.394;2023-05-28T12:03:33;99240.88;;;28.19;35.30
17311;BME280;8773;43.300;0.394;2023-05-28T12:06:01;99232.13;;;28.07;36.74
17311;BME280;8773;43.300;0.394;2023-05-28T12:08:30;99225.81;;;28.16;34.94
17311;BME280;8773;43.300;0.394;2023-05-28T12:11:01;99222.66;;;27.89;33.99
17311;BME280;8773;43.300;0.394;2023-05-28T12:13:33;99220.41;;;27.96;33.30
17311;BME280;8773;43.300;0.394;2023-05-28T12:16:07;99209.22;;;28.37;34.18
17311;BME280;8773;43.300;0.394;2023-05-28T12:18:39;99216.50;;;28.51;34.78
17311;BME280;8773;43.300;0.394;2023-05-28T12:21:09;99207.53;;;28.41;34.97
17311;BME280;8773;43.300;0.394;2023-05-28T12:23:38;99205.28;;;28.43;35.27
17311;BME280;8773;43.300;0.394;2023-05-28T12:26:09;99196.94;;;28.58;35.38
17311;BME280;8773;43.300;0.394;2023-05-28T12:28:36;99187.09;;;28.86;35.26
17311;BME280;8773;43.300;0.394;2023-05-28T12:31:04;99192.09;;;28.84;36.44
17311;BME280;8773;43.300;0.394;2023-05-28T12:33:31;99184.16;;;29.06;36.61
17311;BME280;8773;43.300;0.394;2023-05-28T12:35:59;99182.13;;;29.17;36.54
17311;BME280;8773;43.300;0.394;2023-05-28T12:38:27;99169.34;;;28.78;36.69
17311;BME280;8773;43.300;0.394;2023-05-28T12:40:56;99170.00;;;28.60;38.16
17311;BME280;8773;43.300;0.394;2023-05-28T12:43:24;99172.56;;;28.85;38.23
17311;BME280;8773;43.300;0.394;2023-05-28T12:45:52;99168.09;;;29.18;36.49
17311;BME280;8773;43.300;0.394;2023-05-28T12:48:19;99157.91;;;29.43;36.23
17311;BME280;8773;43.300;0.394;2023-05-28T12:50:47;99157.09;;;29.18;36.33
17311;BME280;8773;43.300;0.394;2023-05-28T12:53:14;99155.91;;;29.48;34.81
17311;BME280;8773;43.300;0.394;2023-05-28T12:55:42;99162.41;;;29.34;33.32
17311;BME280;8773;43.300;0.394;2023-05-28T12:58:11;99162.81;;;29.46;32.77
17311;BME280;8773;43.300;0.394;2023-05-28T13:00:38;99155.78;;;29.11;33.38
17311;BME280;8773;43.300;0.394;2023-05-28T13:03:06;99158.28;;;28.83;33.46
17311;BME280;8773;43.300;0.394;2023-05-28T13:05:33;99155.22;;;29.14;34.02
17311;BME280;8773;43.300;0.394;2023-05-28T13:08:01;99147.00;;;29.57;33.73
17311;BME280;8773;43.300;0.394;2023-05-28T13:10:28;99147.59;;;29.53;33.40
17311;BME280;8773;43.300;0.394;2023-05-28T13:12:56;99145.09;;;29.57;33.69
17311;BME280;8773;43.300;0.394;2023-05-28T13:15:24;99149.88;;;29.89;32.86
17311;BME280;8773;43.300;0.394;2023-05-28T13:17:52;99149.25;;;30.30;32.82
17311;BME280;8773;43.300;0.394;2023-05-28T13:20:19;99135.34;;;30.21;32.57